sensor_id;sensor_type;location;lat;lon;timestamp;temperature;humidity
52889;DHT22;41413;52.770;6.892;2023-03-02T00:01:06;3.60;99.90
52889;DHT22;41413;52.770;6.892;2023-03-02T00:03:38;3.60;99.90
52889;DHT22;41413;52.770;6.892;2023-03-02T00:06:07;3.60;99.90
52889;DHT22;41413;52.770;6.892;2023-03-02T00:08:34;3.60;99.90
52889;DHT22;41413;52.770;6.892;2023-03-02T00:11:01;3.50;99.90
52889;DHT22;41413;52.770;6.892;2023-03-02T00:13:29;3.50;99.90
52889;DHT22;41413;52.770;6.892;2023-03-02T00:15:57;3.50;99.90
52889;DHT22;41413;52.770;6.892;2023-03-02T00:18:23;3.50;99.90
52889;DHT22;41413;52.770;6.892;2023-03-02T00:20:50;3.40;99.90
52889;DHT22;41413;52.770;6.892;2023-03-02T00:23:17;3.40;99.90
52889;DHT22;41413;52.770;6.892;2023-03-02T00:25:44;3.40;99.90
52889;DHT22;41413;52.770;6.892;2023-03-02T00:28:11;3.40;99.90
52889;DHT22;41413;52.770;6.892;2023-03-02T00:30:38;3.40;99.90
52889;DHT22;41413;52.770;6.892;2023-03-02T00:33:04;3.50;99.90
52889;DHT22;41413;52.770;6.892;2023-03-02T00:35:36;3.50;99.90
52889;DHT22;41413;52.770;6.892;2023-03-02T00:38:03;3.40;99.90
52889;DHT22;41413;52.770;6.892;2023-03-02T00:40:30;3.50;99.90
52889;DHT22;41413;52.770;6.892;2023-03-02T00:42:56;3.40;99.90
52889;DHT22;41413;52.770;6.892;2023-03-02T00:45:23;3.40;99.90
52889;DHT22;41413;52.770;6.892;2023-03-02T00:47:50;3.40;99.90
52889;DHT22;41413;52.770;6.892;2023-03-02T00:50:17;3.50;99.90
52889;DHT22;41413;52.770;6.892;2023-03-02T00:52:43;3.50;99.90
52889;DHT22;41413;52.770;6.892;2023-03-02T00:55:10;3.40;99.90
52889;DHT22;41413;52.770;6.892;2023-03-02T00:57:37;3.40;99.90
52889;DHT22;41413;52.770;6.892;2023-03-02T01:00:04;3.40;99.90
52889;DHT22;41413;52.770;6.892;2023-03-02T01:02:31;3.40;99.90
52889;DHT22;41413;52.770;6.892;2023-03-02T01:04:58;3.40;99.90
52889;DHT22;41413;52.770;6.892;2023-03-02T01:07:24;3.30;99.90
52889;DHT22;41413;52.770;6.892;2023-03-02T01:09:53;3.20;99.90
52889;DHT22;41413;52.770;6.892;2023-03-02T01:12:20;3.20;99.90
52889;DHT22;41413;52.770;6.892;2023-03-02T01:14:48;3.20;99.90
52889;DHT22;41413;52.770;6.892;2023-03-02T01:17:16;3.10;99.90
52889;DHT22;41413;52.770;6.892;2023-03-02T01:19:43;3.20;99.90
52889;DHT22;41413;52.770;6.892;2023-03-02T01:22:10;3.20;99.90
52889;DHT22;41413;52.770;6.892;2023-03-02T01:24:37;3.20;99.90
52889;DHT22;41413;52.770;6.892;2023-03-02T01:27:03;3.20;99.90
52889;DHT22;41413;52.770;6.892;2023-03-02T01:29:30;3.20;99.90
52889;DHT22;41413;52.770;6.892;2023-03-02T01:31:57;3.10;99.90
52889;DHT22;41413;52.770;6.892;2023-03-02T01:34:24;3.10;99.90
52889;DHT22;41413;52.770;6.892;2023-03-02T01:36:51;3.00;99.90
52889;DHT22;41413;52.770;6.892;2023-03-02T01:39:17;3.00;99.90
52889;DHT22;41413;52.770;6.892;2023-03-02T01:41:49;3.00;99.90
52889;DHT22;41413;52.770;6.892;2023-03-02T01:44:32;3.00;99.90
52889;DHT22;41413;52.770;6.892;2023-03-02T01:47:01;3.00;99.90
52889;DHT22;41413;52.770;6.892;2023-03-02T01:49:30;2.90;99.90
52889;DHT22;41413;52.770;6.892;2023-03-02T01:51:58;2.90;99.90
52889;DHT22;41413;52.770;6.892;2023-03-02T01:54:25;2.90;99.90
52889;DHT22;41413;52.770;6.892;2023-03-02T01:56:56;2.90;99.90
52889;DHT22;41413;52.770;6.892;2023-03-02T01:59:25;2.80;99.90
52889;DHT22;41413;52.770;6.892;2023-03-02T02:01:56;2.90;99.90
52889;DHT22;41413;52.770;6.892;2023-03-02T02:04:24;2.90;99.90
52889;DHT22;41413;52.770;6.892;2023-03-02T02:07:04;2.80;99.90
52889;DHT22;41413;52.770;6.892;2023-03-02T02:09:43;2.80;99.90
52889;DHT22;41413;52.770;6.892;2023-03-02T02:12:13;2.90;99.90
52889;DHT22;41413;52.770;6.892;2023-03-02T02:14:40;2.80;99.90
52889;DHT22;41413;52.770;6.892;2023-03-02T02:17:07;2.80;99.90
52889;DHT22;41413;52.770;6.892;2023-03-02T02:23:00;2.60;99.90
52889;DHT22;41413;52.770;6.892;2023-03-02T02:28:21;2.70;99.90
52889;DHT22;41413;52.770;6.892;2023-03-02T02:30:54;2.70;99.90
52889;DHT22;41413;52.770;6.892;2023-03-02T02:33:24;2.70;99.90
52889;DHT22;41413;52.770;6.892;2023-03-02T02:35:59;2.80;99.90
52889;DHT22;41413;52.770;6.892;2023-03-02T02:38:26;2.80;99.90
52889;DHT22;41413;52.770;6.892;2023-03-02T02:40:59;2.70;99.90
52889;DHT22;41413;52.770;6.892;2023-03-02T02:43:29;2.70;99.90
52889;DHT22;41413;52.770;6.892;2023-03-02T02:45:58;2.80;99.90
52889;DHT22;41413;52.770;6.892;2023-03-02T02:48:26;2.80;99.90
52889;DHT22;41413;52.770;6.892;2023-03-02T02:50:57;2.80;99.90
52889;DHT22;41413;52.770;6.892;2023-03-02T02:53:37;2.80;99.90
52889;DHT22;41413;52.770;6.892;2023-03-02T02:56:07;2.80;99.90
52889;DHT22;41413;52.770;6.892;2023-03-02T03:01:09;2.70;99.90
52889;DHT22;41413;52.770;6.892;2023-03-02T03:03:37;2.70;99.90
52889;DHT22;41413;52.770;6.892;2023-03-02T03:06:10;2.70;99.90
52889;DHT22;41413;52.770;6.892;2023-03-02T03:11:13;2.50;99.90
52889;DHT22;41413;52.770;6.892;2023-03-02T03:13:42;2.50;99.90
52889;DHT22;41413;52.770;6.892;2023-03-02T03:16:13;2.60;99.90
52889;DHT22;41413;52.770;6.892;2023-03-02T03:18:44;2.60;99.90
52889;DHT22;41413;52.770;6.892;2023-03-02T03:21:12;2.60;99.90
52889;DHT22;41413;52.770;6.892;2023-03-02T03:23:39;2.50;99.90
52889;DHT22;41413;52.770;6.892;2023-03-02T03:26:06;2.60;99.90
52889;DHT22;41413;52.770;6.892;2023-03-02T03:28:33;2.60;99.90
52889;DHT22;41413;52.770;6.892;2023-03-02T03:31:01;2.60;99.90
52889;DHT22;41413;52.770;6.892;2023-03-02T03:33:28;2.60;99.90
52889;DHT22;41413;52.770;6.892;2023-03-02T03:35:54;2.60;99.90
52889;DHT22;41413;52.770;6.892;2023-03-02T03:38:21;2.50;99.90
52889;DHT22;41413;52.770;6.892;2023-03-02T03:40:48;2.50;99.90
52889;DHT22;41413;52.770;6.892;2023-03-02T03:43:15;2.50;99.90
52889;DHT22;41413;52.770;6.892;2023-03-02T03:45:41;2.50;99.90
52889;DHT22;41413;52.770;6.892;2023-03-02T03:48:08;2.50;99.90
52889;DHT22;41413;52.770;6.892;2023-03-02T03:50:35;2.50;99.90
52889;DHT22;41413;52.770;6.892;2023-03-02T03:53:02;2.40;99.90
52889;DHT22;41413;52.770;6.892;2023-03-02T03:55:29;2.50;99.90
52889;DHT22;41413;52.770;6.892;2023-03-02T03:57:56;2.50;99.90
52889;DHT22;41413;52.770;6.892;2023-03-02T04:00:23;2.50;99.90
52889;DHT22;41413;52.770;6.892;2023-03-02T04:02:50;2.40;99.90
52889;DHT22;41413;52.770;6.892;2023-03-02T04:05:17;2.40;99.90
52889;DHT22;41413;52.770;6.892;2023-03-02T04:07:44;2.40;99.90
52889;DHT22;41413;52.770;6.892;2023-03-02T04:10:11;2.40;99.90
52889;DHT22;41413;52.770;6.892;2023-03-02T04:12:40;2.40;99.90
52889;DHT22;41413;52.770;6.892;2023-03-02T04:15:11;2.40;99.90
52889;DHT22;41413;52.770;6.892;2023-03-02T04:17:38;2.30;99.90
52889;DHT22;41413;52.770;6.892;2023-03-02T04:20:05;2.30;99.90
52889;DHT22;41413;52.770;6.892;2023-03-02T04:22:35;2.30;99.90
52889;DHT22;41413;52.770;6.892;2023-03-02T04:25:02;2.30;99.90
52889;DHT22;41413;52.770;6.892;2023-03-02T04:27:30;2.20;99.90
52889;DHT22;41413;52.770;6.892;2023-03-02T04:29:57;2.20;99.90
52889;DHT22;41413;52.770;6.892;2023-03-02T04:32:23;2.20;99.90
52889;DHT22;41413;52.770;6.892;2023-03-02T04:34:50;2.20;99.90
52889;DHT22;41413;52.770;6.892;2023-03-02T04:37:17;2.10;99.90
52889;DHT22;41413;52.770;6.892;2023-03-02T04:39:43;2.20;99.90
52889;DHT22;41413;52.770;6.892;2023-03-02T04:42:12;2.10;99.90
52889;DHT22;41413;52.770;6.892;2023-03-02T04:44:39;2.20;99.90
52889;DHT22;41413;52.770;6.892;2023-03-02T04:47:06;2.20;99.90
52889;DHT22;41413;52.770;6.892;2023-03-02T04:49:33;2.10;99.90
52889;DHT22;41413;52.770;6.892;2023-03-02T04:51:59;2.10;99.90
52889;DHT22;41413;52.770;6.892;2023-03-02T04:54:26;2.10;99.90
52889;DHT22;41413;52.770;6.892;2023-03-02T04:56:54;2.10;99.90
52889;DHT22;41413;52.770;6.892;2023-03-02T04:59:23;2.10;99.90
52889;DHT22;41413;52.770;6.892;2023-03-02T05:01:52;2.10;99.90
52889;DHT22;41413;52.770;6.892;2023-03-02T05:04:19;2.10;99.90
52889;DHT22;41413;52.770;6.892;2023-03-02T05:06:46;2.10;99.90
52889;DHT22;41413;52.770;6.892;2023-03-02T05:09:13;2.10;99.90
52889;DHT22;41413;52.770;6.892;2023-03-02T05:11:40;2.10;99.90
52889;DHT22;41413;52.770;6.892;2023-03-02T05:14:09;2.10;99.90
52889;DHT22;41413;52.770;6.892;2023-03-02T05:16:38;2.10;99.90
52889;DHT22;41413;52.770;6.892;2023-03-02T05:19:07;2.10;99.90
52889;DHT22;41413;52.770;6.892;2023-03-02T05:21:34;2.10;99.90
52889;DHT22;41413;52.770;6.892;2023-03-02T05:24:01;2.00;99.90
52889;DHT22;41413;52.770;6.892;2023-03-02T05:26:28;2.00;99.90
52889;DHT22;41413;52.770;6.892;2023-03-02T05:28:55;2.10;99.90
52889;DHT22;41413;52.770;6.892;2023-03-02T05:31:32;2.00;99.90
52889;DHT22;41413;52.770;6.892;2023-03-02T05:34:04;2.00;99.90
52889;DHT22;41413;52.770;6.892;2023-03-02T05:36:31;2.00;99.90
52889;DHT22;41413;52.770;6.892;2023-03-02T05:38:59;2.00;99.90
52889;DHT22;41413;52.770;6.892;2023-03-02T05:41:25;2.10;99.90
52889;DHT22;41413;52.770;6.892;2023-03-02T05:43:52;2.00;99.90
52889;DHT22;41413;52.770;6.892;2023-03-02T05:46:19;2.00;99.90
52889;DHT22;41413;52.770;6.892;2023-03-02T05:48:47;2.00;99.90
52889;DHT22;41413;52.770;6.892;2023-03-02T05:51:14;2.00;99.90
52889;DHT22;41413;52.770;6.892;2023-03-02T05:53:41;1.90;99.90
52889;DHT22;41413;52.770;6.892;2023-03-02T05:56:08;1.90;99.90
52889;DHT22;41413;52.770;6.892;2023-03-02T05:58:35;1.90;99.90
52889;DHT22;41413;52.770;6.892;2023-03-02T06:01:06;1.90;99.90
52889;DHT22;41413;52.770;6.892;2023-03-02T06:03:33;1.80;99.90
52889;DHT22;41413;52.770;6.892;2023-03-02T06:06:00;1.90;99.90
52889;DHT22;41413;52.770;6.892;2023-03-02T06:08:27;1.80;99.90
52889;DHT22;41413;52.770;6.892;2023-03-02T06:10:55;1.90;99.90
52889;DHT22;41413;52.770;6.892;2023-03-02T06:13:21;1.90;99.90
52889;DHT22;41413;52.770;6.892;2023-03-02T06:15:48;1.90;99.90
52889;DHT22;41413;52.770;6.892;2023-03-02T06:18:15;1.80;99.90
52889;DHT22;41413;52.770;6.892;2023-03-02T06:20:41;1.90;99.90
52889;DHT22;41413;52.770;6.892;2023-03-02T06:23:08;1.90;99.90
52889;DHT22;41413;52.770;6.892;2023-03-02T06:25:37;1.80;99.90
52889;DHT22;41413;52.770;6.892;2023-03-02T06:28:06;1.80;99.90
52889;DHT22;41413;52.770;6.892;2023-03-02T06:30:33;1.80;99.90
52889;DHT22;41413;52.770;6.892;2023-03-02T06:33:00;1.90;99.90
52889;DHT22;41413;52.770;6.892;2023-03-02T06:35:27;1.90;99.90
52889;DHT22;41413;52.770;6.892;2023-03-02T06:37:54;1.90;99.90
52889;DHT22;41413;52.770;6.892;2023-03-02T06:40:21;1.80;99.90
52889;DHT22;41413;52.770;6.892;2023-03-02T06:42:48;1.80;99.90
52889;DHT22;41413;52.770;6.892;2023-03-02T06:45:14;1.90;99.90
52889;DHT22;41413;52.770;6.892;2023-03-02T06:47:41;1.80;99.90
52889;DHT22;41413;52.770;6.892;2023-03-02T06:50:09;1.80;99.90
52889;DHT22;41413;52.770;6.892;2023-03-02T06:52:36;1.80;99.90
52889;DHT22;41413;52.770;6.892;2023-03-02T06:55:03;1.80;99.90
52889;DHT22;41413;52.770;6.892;2023-03-02T06:57:30;1.80;99.90
52889;DHT22;41413;52.770;6.892;2023-03-02T07:00:01;1.70;99.90
52889;DHT22;41413;52.770;6.892;2023-03-02T07:02:28;1.70;99.90
52889;DHT22;41413;52.770;6.892;2023-03-02T07:04:55;1.80;99.90
52889;DHT22;41413;52.770;6.892;2023-03-02T07:07:22;1.90;99.90
52889;DHT22;41413;52.770;6.892;2023-03-02T07:09:48;1.90;99.90
52889;DHT22;41413;52.770;6.892;2023-03-02T07:12:15;1.80;99.90
52889;DHT22;41413;52.770;6.892;2023-03-02T07:14:42;1.80;99.90
52889;DHT22;41413;52.770;6.892;2023-03-02T07:17:08;1.80;99.90
52889;DHT22;41413;52.770;6.892;2023-03-02T07:19:35;1.90;99.90
52889;DHT22;41413;52.770;6.892;2023-03-02T07:22:06;1.90;99.90
52889;DHT22;41413;52.770;6.892;2023-03-02T07:24:33;1.90;99.90
52889;DHT22;41413;52.770;6.892;2023-03-02T07:26:59;1.90;99.90
52889;DHT22;41413;52.770;6.892;2023-03-02T07:29:26;1.90;99.90
52889;DHT22;41413;52.770;6.892;2023-03-02T07:31:53;1.90;99.90
52889;DHT22;41413;52.770;6.892;2023-03-02T07:34:23;1.90;99.90
52889;DHT22;41413;52.770;6.892;2023-03-02T07:36:51;2.00;99.90
52889;DHT22;41413;52.770;6.892;2023-03-02T07:39:18;2.00;99.90
52889;DHT22;41413;52.770;6.892;2023-03-02T07:41:45;2.10;99.90
52889;DHT22;41413;52.770;6.892;2023-03-02T07:44:12;2.10;99.90
52889;DHT22;41413;52.770;6.892;2023-03-02T07:46:38;2.10;99.90
52889;DHT22;41413;52.770;6.892;2023-03-02T07:49:05;2.00;99.90
52889;DHT22;41413;52.770;6.892;2023-03-02T07:51:32;2.00;99.90
52889;DHT22;41413;52.770;6.892;2023-03-02T07:53:59;2.10;99.90
52889;DHT22;41413;52.770;6.892;2023-03-02T07:56:28;2.10;99.90
52889;DHT22;41413;52.770;6.892;2023-03-02T07:58:55;2.00;99.90
52889;DHT22;41413;52.770;6.892;2023-03-02T08:01:21;2.20;99.90
52889;DHT22;41413;52.770;6.892;2023-03-02T08:03:48;2.20;99.90
52889;DHT22;41413;52.770;6.892;2023-03-02T08:06:15;2.20;99.90
52889;DHT22;41413;52.770;6.892;2023-03-02T08:08:42;2.30;99.90
52889;DHT22;41413;52.770;6.892;2023-03-02T08:11:11;2.20;99.90
52889;DHT22;41413;52.770;6.892;2023-03-02T08:13:38;2.20;99.90
52889;DHT22;41413;52.770;6.892;2023-03-02T08:16:06;2.20;99.90
52889;DHT22;41413;52.770;6.892;2023-03-02T08:18:35;2.20;99.90
52889;DHT22;41413;52.770;6.892;2023-03-02T08:21:03;2.20;99.90
52889;DHT22;41413;52.770;6.892;2023-03-02T08:23:30;2.20;99.90
52889;DHT22;41413;52.770;6.892;2023-03-02T08:25:57;2.20;99.90
52889;DHT22;41413;52.770;6.892;2023-03-02T08:28:23;2.20;99.90
52889;DHT22;41413;52.770;6.892;2023-03-02T08:30:54;2.20;99.90
52889;DHT22;41413;52.770;6.892;2023-03-02T08:33:22;2.30;99.90
52889;DHT22;41413;52.770;6.892;2023-03-02T08:36:01;2.30;99.90
52889;DHT22;41413;52.770;6.892;2023-03-02T08:38:28;2.30;99.90
52889;DHT22;41413;52.770;6.892;2023-03-02T08:40:55;2.30;99.90
52889;DHT22;41413;52.770;6.892;2023-03-02T08:43:24;2.40;99.90
52889;DHT22;41413;52.770;6.892;2023-03-02T08:45:52;2.50;99.90
52889;DHT22;41413;52.770;6.892;2023-03-02T08:48:20;2.50;99.90
52889;DHT22;41413;52.770;6.892;2023-03-02T08:51:14;2.60;99.90
52889;DHT22;41413;52.770;6.892;2023-03-02T08:53:44;2.60;99.90
52889;DHT22;41413;52.770;6.892;2023-03-02T08:56:24;2.70;99.90
52889;DHT22;41413;52.770;6.892;2023-03-02T08:58:52;2.70;99.90
52889;DHT22;41413;52.770;6.892;2023-03-02T09:01:25;2.70;99.90
52889;DHT22;41413;52.770;6.892;2023-03-02T09:03:52;2.80;99.90
52889;DHT22;41413;52.770;6.892;2023-03-02T09:06:19;2.80;99.90
52889;DHT22;41413;52.770;6.892;2023-03-02T09:08:46;2.70;99.90
52889;DHT22;41413;52.770;6.892;2023-03-02T09:11:13;2.70;99.90
52889;DHT22;41413;52.770;6.892;2023-03-02T09:13:40;2.70;99.90
52889;DHT22;41413;52.770;6.892;2023-03-02T09:16:07;2.80;99.90
52889;DHT22;41413;52.770;6.892;2023-03-02T09:18:35;2.80;99.90
52889;DHT22;41413;52.770;6.892;2023-03-02T09:21:02;2.80;99.90
52889;DHT22;41413;52.770;6.892;2023-03-02T09:23:29;2.90;99.90
52889;DHT22;41413;52.770;6.892;2023-03-02T09:25:56;2.90;99.90
52889;DHT22;41413;52.770;6.892;2023-03-02T09:28:23;2.90;99.90
52889;DHT22;41413;52.770;6.892;2023-03-02T09:30:51;3.00;99.90
52889;DHT22;41413;52.770;6.892;2023-03-02T09:33:19;3.10;99.90
52889;DHT22;41413;52.770;6.892;2023-03-02T09:35:46;3.10;99.90
52889;DHT22;41413;52.770;6.892;2023-03-02T09:38:14;3.10;99.90
52889;DHT22;41413;52.770;6.892;2023-03-02T09:46:59;3.00;99.90
52889;DHT22;41413;52.770;6.892;2023-03-02T09:54:40;3.10;99.90
52889;DHT22;41413;52.770;6.892;2023-03-02T09:57:21;3.10;99.90
52889;DHT22;41413;52.770;6.892;2023-03-02T10:00:02;3.80;99.90
52889;DHT22;41413;52.770;6.892;2023-03-02T10:02:50;3.20;99.90
52889;DHT22;41413;52.770;6.892;2023-03-02T10:05:26;3.20;99.90
52889;DHT22;41413;52.770;6.892;2023-03-02T10:07:53;3.30;99.90
52889;DHT22;41413;52.770;6.892;2023-03-02T10:10:45;3.30;99.90
52889;DHT22;41413;52.770;6.892;2023-03-02T10:16:11;3.50;99.90
52889;DHT22;41413;52.770;6.892;2023-03-02T10:18:52;3.60;99.90
52889;DHT22;41413;52.770;6.892;2023-03-02T10:21:34;3.70;99.90
52889;DHT22;41413;52.770;6.892;2023-03-02T10:26:42;3.80;99.90
52889;DHT22;41413;52.770;6.892;2023-03-02T10:29:24;3.90;99.90
52889;DHT22;41413;52.770;6.892;2023-03-02T10:31:58;4.00;99.90
52889;DHT22;41413;52.770;6.892;2023-03-02T10:34:28;4.10;99.90
52889;DHT22;41413;52.770;6.892;2023-03-02T10:36:56;4.10;99.90
52889;DHT22;41413;52.770;6.892;2023-03-02T10:39:23;4.10;99.90
52889;DHT22;41413;52.770;6.892;2023-03-02T10:42:03;4.10;99.90
52889;DHT22;41413;52.770;6.892;2023-03-02T10:44:34;4.20;99.90
52889;DHT22;41413;52.770;6.892;2023-03-02T10:47:04;4.20;99.90
52889;DHT22;41413;52.770;6.892;2023-03-02T10:49:40;4.20;99.90
52889;DHT22;41413;52.770;6.892;2023-03-02T10:52:14;4.30;99.90
52889;DHT22;41413;52.770;6.892;2023-03-02T10:54:42;4.20;99.90
52889;DHT22;41413;52.770;6.892;2023-03-02T10:57:33;4.20;99.90
52889;DHT22;41413;52.770;6.892;2023-03-02T11:02:33;4.30;99.90
52889;DHT22;41413;52.770;6.892;2023-03-02T11:07:54;4.50;99.90
52889;DHT22;41413;52.770;6.892;2023-03-02T11:10:24;4.10;99.90
52889;DHT22;41413;52.770;6.892;2023-03-02T11:12:52;4.70;99.90
52889;DHT22;41413;52.770;6.892;2023-03-02T11:18:11;4.70;99.90
52889;DHT22;41413;52.770;6.892;2023-03-02T11:20:43;4.70;99.90
52889;DHT22;41413;52.770;6.892;2023-03-02T11:26:39;4.70;99.90
52889;DHT22;41413;52.770;6.892;2023-03-02T11:29:17;4.80;99.90
52889;DHT22;41413;52.770;6.892;2023-03-02T11:31:52;4.90;99.90
52889;DHT22;41413;52.770;6.892;2023-03-02T11:34:31;4.90;99.90
52889;DHT22;41413;52.770;6.892;2023-03-02T11:37:15;5.00;99.90
52889;DHT22;41413;52.770;6.892;2023-03-02T11:42:42;4.90;99.90
52889;DHT22;41413;52.770;6.892;2023-03-02T11:50:37;5.50;99.90
52889;DHT22;41413;52.770;6.892;2023-03-02T11:53:12;5.60;99.90
52889;DHT22;41413;52.770;6.892;2023-03-02T11:55:43;5.70;99.90
52889;DHT22;41413;52.770;6.892;2023-03-02T11:58:22;5.70;99.90
52889;DHT22;41413;52.770;6.892;2023-03-02T12:00:51;5.60;99.90
52889;DHT22;41413;52.770;6.892;2023-03-02T12:03:35;5.70;99.90
52889;DHT22;41413;52.770;6.892;2023-03-02T12:08:43;5.80;99.90
52889;DHT22;41413;52.770;6.892;2023-03-02T12:16:20;5.60;99.90
52889;DHT22;41413;52.770;6.892;2023-03-02T12:18:49;5.70;99.90
52889;DHT22;41413;52.770;6.892;2023-03-02T12:21:19;5.70;99.90
52889;DHT22;41413;52.770;6.892;2023-03-02T12:34:38;5.60;99.90
52889;DHT22;41413;52.770;6.892;2023-03-02T12:37:28;5.70;99.90
52889;DHT22;41413;52.770;6.892;2023-03-02T12:51:25;5.80;99.90
52889;DHT22;41413;52.770;6.892;2023-03-02T12:54:03;5.80;99.90
52889;DHT22;41413;52.770;6.892;2023-03-02T12:56:30;5.80;99.90
52889;DHT22;41413;52.770;6.892;2023-03-02T12:58:57;5.80;99.90
52889;DHT22;41413;52.770;6.892;2023-03-02T13:01:27;5.80;99.90
52889;DHT22;41413;52.770;6.892;2023-03-02T13:03:54;5.80;99.90
52889;DHT22;41413;52.770;6.892;2023-03-02T13:06:24;5.80;99.90
52889;DHT22;41413;52.770;6.892;2023-03-02T13:08:55;5.90;99.90
52889;DHT22;41413;52.770;6.892;2023-03-02T13:11:33;5.80;99.90
52889;DHT22;41413;52.770;6.892;2023-03-02T13:14:02;5.60;99.90
52889;DHT22;41413;52.770;6.892;2023-03-02T13:16:53;5.70;99.90
52889;DHT22;41413;52.770;6.892;2023-03-02T13:19:20;5.70;99.90
52889;DHT22;41413;52.770;6.892;2023-03-02T13:21:46;5.70;99.90
52889;DHT22;41413;52.770;6.892;2023-03-02T13:24:32;5.80;99.90
52889;DHT22;41413;52.770;6.892;2023-03-02T13:27:04;5.80;99.90
52889;DHT22;41413;52.770;6.892;2023-03-02T13:29:32;5.70;99.90
52889;DHT22;41413;52.770;6.892;2023-03-02T13:32:27;5.60;99.90
52889;DHT22;41413;52.770;6.892;2023-03-02T13:35:00;5.70;99.90
52889;DHT22;41413;52.770;6.892;2023-03-02T13:37:37;5.60;99.90
52889;DHT22;41413;52.770;6.892;2023-03-02T13:42:53;5.50;99.90
52889;DHT22;41413;52.770;6.892;2023-03-02T13:45:23;5.50;99.90
52889;DHT22;41413;52.770;6.892;2023-03-02T13:47:51;5.50;99.90
52889;DHT22;41413;52.770;6.892;2023-03-02T13:50:21;5.50;99.90
52889;DHT22;41413;52.770;6.892;2023-03-02T13:52:49;5.60;99.90
52889;DHT22;41413;52.770;6.892;2023-03-02T13:55:18;5.60;99.90
52889;DHT22;41413;52.770;6.892;2023-03-02T13:57:46;5.50;99.90
52889;DHT22;41413;52.770;6.892;2023-03-02T14:00:17;5.50;99.90
52889;DHT22;41413;52.770;6.892;2023-03-02T14:02:45;5.50;99.90
52889;DHT22;41413;52.770;6.892;2023-03-02T14:05:16;5.50;99.90
52889;DHT22;41413;52.770;6.892;2023-03-02T14:07:43;5.40;99.90
52889;DHT22;41413;52.770;6.892;2023-03-02T14:10:16;5.40;99.90
52889;DHT22;41413;52.770;6.892;2023-03-02T14:12:56;5.40;99.90
52889;DHT22;41413;52.770;6.892;2023-03-02T14:15:23;5.30;99.90
52889;DHT22;41413;52.770;6.892;2023-03-02T14:17:50;5.40;99.90
52889;DHT22;41413;52.770;6.892;2023-03-02T14:20:18;5.50;99.90
52889;DHT22;41413;52.770;6.892;2023-03-02T14:22:46;5.40;99.90
52889;DHT22;41413;52.770;6.892;2023-03-02T14:25:13;5.40;99.90
52889;DHT22;41413;52.770;6.892;2023-03-02T14:27:40;5.40;99.90
52889;DHT22;41413;52.770;6.892;2023-03-02T14:30:16;5.30;99.90
52889;DHT22;41413;52.770;6.892;2023-03-02T14:32:43;5.30;99.90
52889;DHT22;41413;52.770;6.892;2023-03-02T14:35:11;5.30;99.90
52889;DHT22;41413;52.770;6.892;2023-03-02T14:37:44;5.40;99.90
52889;DHT22;41413;52.770;6.892;2023-03-02T14:40:27;5.50;99.90
52889;DHT22;41413;52.770;6.892;2023-03-02T14:42:54;5.50;99.90
52889;DHT22;41413;52.770;6.892;2023-03-02T14:45:21;5.50;99.90
52889;DHT22;41413;52.770;6.892;2023-03-02T14:47:48;5.50;99.90
52889;DHT22;41413;52.770;6.892;2023-03-02T14:50:15;5.50;99.90
52889;DHT22;41413;52.770;6.892;2023-03-02T14:52:50;5.50;99.90
52889;DHT22;41413;52.770;6.892;2023-03-02T14:55:29;5.60;99.90
52889;DHT22;41413;52.770;6.892;2023-03-02T14:57:58;5.70;99.90
52889;DHT22;41413;52.770;6.892;2023-03-02T15:00:26;5.70;99.90
52889;DHT22;41413;52.770;6.892;2023-03-02T15:02:53;5.60;99.90
52889;DHT22;41413;52.770;6.892;2023-03-02T15:05:20;5.70;99.90
52889;DHT22;41413;52.770;6.892;2023-03-02T15:07:47;5.70;99.90
52889;DHT22;41413;52.770;6.892;2023-03-02T15:10:19;5.60;99.90
52889;DHT22;41413;52.770;6.892;2023-03-02T15:12:46;5.60;99.90
52889;DHT22;41413;52.770;6.892;2023-03-02T15:15:13;5.50;99.90
52889;DHT22;41413;52.770;6.892;2023-03-02T15:17:40;5.60;99.90
52889;DHT22;41413;52.770;6.892;2023-03-02T15:20:09;5.60;99.90
52889;DHT22;41413;52.770;6.892;2023-03-02T15:22:38;5.50;99.90
52889;DHT22;41413;52.770;6.892;2023-03-02T15:25:05;5.60;99.90
52889;DHT22;41413;52.770;6.892;2023-03-02T15:27:32;5.60;99.90
52889;DHT22;41413;52.770;6.892;2023-03-02T15:29:58;5.60;99.90
52889;DHT22;41413;52.770;6.892;2023-03-02T15:32:25;5.70;99.90
52889;DHT22;41413;52.770;6.892;2023-03-02T15:34:52;5.60;99.90
52889;DHT22;41413;52.770;6.892;2023-03-02T15:37:19;5.60;99.90
52889;DHT22;41413;52.770;6.892;2023-03-02T15:39:45;5.60;99.90
52889;DHT22;41413;52.770;6.892;2023-03-02T15:42:12;5.60;99.90
52889;DHT22;41413;52.770;6.892;2023-03-02T15:44:39;5.60;99.90
52889;DHT22;41413;52.770;6.892;2023-03-02T15:47:06;5.60;99.90
52889;DHT22;41413;52.770;6.892;2023-03-02T15:49:33;5.60;99.90
52889;DHT22;41413;52.770;6.892;2023-03-02T15:51:59;5.60;99.90
52889;DHT22;41413;52.770;6.892;2023-03-02T15:54:27;5.60;99.90
52889;DHT22;41413;52.770;6.892;2023-03-02T15:56:54;5.60;99.90
52889;DHT22;41413;52.770;6.892;2023-03-02T15:59:23;5.70;99.90
52889;DHT22;41413;52.770;6.892;2023-03-02T16:01:50;5.60;99.90
52889;DHT22;41413;52.770;6.892;2023-03-02T16:04:17;5.60;99.90
52889;DHT22;41413;52.770;6.892;2023-03-02T16:06:44;5.60;99.90
52889;DHT22;41413;52.770;6.892;2023-03-02T16:09:11;5.60;99.90
52889;DHT22;41413;52.770;6.892;2023-03-02T16:11:38;5.70;99.90
52889;DHT22;41413;52.770;6.892;2023-03-02T16:14:04;5.70;99.90
52889;DHT22;41413;52.770;6.892;2023-03-02T16:16:31;5.60;99.90
52889;DHT22;41413;52.770;6.892;2023-03-02T16:18:58;5.60;99.90
52889;DHT22;41413;52.770;6.892;2023-03-02T16:21:26;5.60;99.90
52889;DHT22;41413;52.770;6.892;2023-03-02T16:23:55;5.60;99.90
52889;DHT22;41413;52.770;6.892;2023-03-02T16:26:30;5.60;99.90
52889;DHT22;41413;52.770;6.892;2023-03-02T16:28:57;5.60;99.90
52889;DHT22;41413;52.770;6.892;2023-03-02T16:31:25;5.50;99.90
52889;DHT22;41413;52.770;6.892;2023-03-02T16:33:55;5.50;99.90
52889;DHT22;41413;52.770;6.892;2023-03-02T16:36:24;5.50;99.90
52889;DHT22;41413;52.770;6.892;2023-03-02T16:38:51;5.50;99.90
52889;DHT22;41413;52.770;6.892;2023-03-02T16:41:21;5.50;99.90
52889;DHT22;41413;52.770;6.892;2023-03-02T16:43:53;5.40;99.90
52889;DHT22;41413;52.770;6.892;2023-03-02T16:46:21;5.40;99.90
52889;DHT22;41413;52.770;6.892;2023-03-02T16:48:49;5.30;99.90
52889;DHT22;41413;52.770;6.892;2023-03-02T16:51:17;5.30;99.90
52889;DHT22;41413;52.770;6.892;2023-03-02T16:53:44;5.30;99.90
52889;DHT22;41413;52.770;6.892;2023-03-02T16:56:12;5.20;99.90
52889;DHT22;41413;52.770;6.892;2023-03-02T16:58:39;5.20;99.90
52889;DHT22;41413;52.770;6.892;2023-03-02T17:01:16;5.10;99.90
52889;DHT22;41413;52.770;6.892;2023-03-02T17:03:43;5.10;99.90
52889;DHT22;41413;52.770;6.892;2023-03-02T17:06:12;5.10;99.90
52889;DHT22;41413;52.770;6.892;2023-03-02T17:08:40;5.00;99.90
52889;DHT22;41413;52.770;6.892;2023-03-02T17:11:07;5.00;99.90
52889;DHT22;41413;52.770;6.892;2023-03-02T17:13:34;5.00;99.90
52889;DHT22;41413;52.770;6.892;2023-03-02T17:16:01;4.90;99.90
52889;DHT22;41413;52.770;6.892;2023-03-02T17:18:29;4.90;99.90